createdAt,value
2017-12-20T00:01:16.356Z,11.28
2017-12-20T00:03:44.704Z,11.14
2017-12-20T00:06:13.077Z,11.15
2017-12-20T00:08:41.449Z,11.19
2017-12-20T00:11:09.797Z,11.17
2017-12-20T00:13:38.183Z,11.07
2017-12-20T00:16:06.532Z,11.07
2017-12-20T00:18:34.923Z,10.99
2017-12-20T00:21:03.374Z,10.96
2017-12-20T00:23:31.757Z,10.83
2017-12-20T00:26:00.109Z,10.84
2017-12-20T00:28:28.516Z,10.88
2017-12-20T00:30:56.879Z,10.78
2017-12-20T00:33:26.192Z,10.79
2017-12-20T00:35:54.560Z,10.75
2017-12-20T00:38:22.907Z,10.78
2017-12-20T00:40:51.652Z,10.78
2017-12-20T00:43:20.122Z,10.59
2017-12-20T00:45:48.472Z,10.66
2017-12-20T00:48:16.816Z,10.63
2017-12-20T00:50:45.189Z,10.45
2017-12-20T00:53:13.543Z,10.51
2017-12-20T00:55:41.910Z,10.42
2017-12-20T00:58:10.294Z,10.47
2017-12-20T01:00:38.665Z,10.54
2017-12-20T01:03:07.044Z,10.52
2017-12-20T01:05:35.407Z,10.52
2017-12-20T01:08:03.762Z,10.53
2017-12-20T01:10:32.191Z,10.51
2017-12-20T01:13:00.673Z,10.29
2017-12-20T01:15:29.040Z,10.34
2017-12-20T01:17:57.417Z,10.35
2017-12-20T01:20:25.900Z,10.36
2017-12-20T01:22:54.274Z,10.42
2017-12-20T01:25:22.636Z,10.50
2017-12-20T01:27:51.013Z,10.50
2017-12-20T01:30:19.355Z,10.51
2017-12-20T01:32:47.712Z,10.64
2017-12-20T01:35:16.176Z,10.62
2017-12-20T01:37:44.523Z,10.60
2017-12-20T01:40:12.935Z,10.63
2017-12-20T01:42:42.909Z,10.41
2017-12-20T01:45:11.649Z,10.43
2017-12-20T01:47:40.016Z,10.56
2017-12-20T01:50:08.408Z,10.64
2017-12-20T01:52:36.769Z,10.67
2017-12-20T01:55:05.152Z,10.34
2017-12-20T01:57:33.509Z,10.27
2017-12-20T02:00:01.886Z,10.42
2017-12-20T02:02:30.239Z,10.50
2017-12-20T02:04:58.607Z,10.58
2017-12-20T02:07:27.460Z,10.56
2017-12-20T02:09:55.834Z,10.50
2017-12-20T02:12:24.188Z,10.54
2017-12-20T02:14:52.536Z,10.63
2017-12-20T02:17:20.972Z,10.49
2017-12-20T02:19:49.387Z,10.39
2017-12-20T02:22:17.753Z,10.41
2017-12-20T02:24:46.104Z,10.26
2017-12-20T02:27:14.461Z,10.26
2017-12-20T02:29:42.828Z,10.08
2017-12-20T02:32:11.247Z,10.36
2017-12-20T02:34:39.624Z,10.45
2017-12-20T02:37:08.005Z,10.47
2017-12-20T02:39:36.387Z,10.45
2017-12-20T02:42:09.447Z,10.43
2017-12-20T02:44:37.838Z,10.44
2017-12-20T02:47:06.186Z,10.50
2017-12-20T02:49:35.008Z,10.57
2017-12-20T02:52:03.377Z,10.38
2017-12-20T02:54:31.777Z,10.26
2017-12-20T02:57:00.136Z,10.38
2017-12-20T02:59:28.528Z,10.34
2017-12-20T03:01:56.923Z,10.33
2017-12-20T03:04:25.288Z,10.11
2017-12-20T03:06:53.672Z,10.00
2017-12-20T03:09:22.027Z,9.96
2017-12-20T03:11:50.404Z,10.01
2017-12-20T03:14:19.619Z,10.07
2017-12-20T03:16:47.999Z,9.92
2017-12-20T03:19:16.355Z,9.83
2017-12-20T03:21:44.703Z,9.89
2017-12-20T03:24:13.464Z,9.82
2017-12-20T03:26:41.808Z,9.68
2017-12-20T03:29:10.206Z,9.67
2017-12-20T03:31:38.556Z,9.62
2017-12-20T03:34:06.938Z,9.69
2017-12-20T03:36:35.293Z,9.70
2017-12-20T03:39:04.036Z,9.55
2017-12-20T03:41:32.504Z,9.66
2017-12-20T03:44:00.844Z,9.71
2017-12-20T03:46:29.270Z,9.64
2017-12-20T03:48:57.620Z,9.67
2017-12-20T03:51:26.058Z,9.72
2017-12-20T03:53:54.908Z,9.73
2017-12-20T03:56:23.312Z,9.61
2017-12-20T03:58:51.769Z,9.65
2017-12-20T04:01:20.123Z,9.62
2017-12-20T04:03:48.528Z,9.71
2017-12-20T04:06:16.867Z,9.67
2017-12-20T04:08:45.275Z,9.48
2017-12-20T04:11:13.633Z,9.51
2017-12-20T04:13:42.084Z,9.54
2017-12-20T04:16:10.531Z,9.60
2017-12-20T04:18:38.888Z,9.76
2017-12-20T04:21:07.235Z,9.70
2017-12-20T04:23:35.990Z,9.77
2017-12-20T04:26:04.333Z,9.80
2017-12-20T04:28:32.747Z,9.78
2017-12-20T04:31:01.109Z,9.79
2017-12-20T04:33:29.488Z,9.71
2017-12-20T04:35:57.865Z,9.80
2017-12-20T04:38:26.232Z,10.03
2017-12-20T04:40:54.608Z,9.70
2017-12-20T04:43:22.995Z,9.78
2017-12-20T04:45:51.972Z,10.01
2017-12-20T04:48:20.326Z,10.01
2017-12-20T04:50:49.067Z,10.00
2017-12-20T04:53:17.536Z,10.12
2017-12-20T04:55:45.891Z,10.02
2017-12-20T04:58:14.297Z,10.10
2017-12-20T05:00:42.636Z,10.02
2017-12-20T05:03:11.034Z,10.05
2017-12-20T05:05:39.400Z,10.09
2017-12-20T05:08:07.759Z,10.13
2017-12-20T05:10:36.588Z,10.23
2017-12-20T05:13:04.946Z,10.22
2017-12-20T05:15:33.316Z,10.26
2017-12-20T05:18:01.668Z,10.28
2017-12-20T05:20:30.111Z,10.31
2017-12-20T05:22:59.413Z,10.08
2017-12-20T05:25:27.796Z,10.16
2017-12-20T05:27:56.835Z,10.23
2017-12-20T05:30:25.345Z,10.14
2017-12-20T05:32:53.856Z,10.16
2017-12-20T05:35:22.217Z,10.01
2017-12-20T05:37:50.584Z,10.11
2017-12-20T05:40:18.959Z,10.22
2017-12-20T05:42:47.309Z,10.37
2017-12-20T05:45:16.073Z,10.25
2017-12-20T05:47:44.441Z,10.24
2017-12-20T05:50:13.808Z,10.04
2017-12-20T05:52:42.224Z,10.29
2017-12-20T05:55:10.576Z,10.32
2017-12-20T05:57:38.964Z,10.18
2017-12-20T06:00:07.360Z,10.37
2017-12-20T06:02:35.840Z,10.47
2017-12-20T06:05:04.296Z,10.41
2017-12-20T06:07:32.671Z,10.49
2017-12-20T06:10:01.063Z,10.42
2017-12-20T06:12:29.432Z,10.31
2017-12-20T06:14:57.792Z,10.14
2017-12-20T06:17:26.145Z,10.46
2017-12-20T06:19:54.920Z,10.47
2017-12-20T06:22:23.265Z,10.42
2017-12-20T06:24:51.609Z,10.48
2017-12-20T06:27:20.024Z,10.63
2017-12-20T06:29:48.401Z,10.50
2017-12-20T06:32:16.765Z,10.38
2017-12-20T06:34:45.125Z,10.15
2017-12-20T06:37:13.501Z,10.19
2017-12-20T06:39:41.883Z,10.33
2017-12-20T06:42:10.250Z,10.14
2017-12-20T06:44:38.997Z,10.52
2017-12-20T06:47:07.472Z,10.59
2017-12-20T06:49:35.864Z,10.61
2017-12-20T06:52:04.229Z,10.49
2017-12-20T06:54:32.586Z,10.52
2017-12-20T06:57:01.075Z,10.45
2017-12-20T06:59:29.454Z,10.44
2017-12-20T07:01:57.830Z,10.36
2017-12-20T07:04:26.325Z,10.58
2017-12-20T07:06:54.714Z,10.46
2017-12-20T07:09:23.097Z,10.28
2017-12-20T07:11:51.468Z,10.27
2017-12-20T07:14:19.827Z,10.40
2017-12-20T07:16:48.204Z,10.35
2017-12-20T07:19:16.598Z,10.48
2017-12-20T07:21:44.964Z,10.41
2017-12-20T07:24:13.353Z,10.40
2017-12-20T07:26:41.734Z,10.34
2017-12-20T07:29:10.088Z,10.23
2017-12-20T07:31:38.440Z,10.30
2017-12-20T07:34:07.212Z,10.43
2017-12-20T07:36:36.055Z,10.42
2017-12-20T07:39:04.412Z,10.24
2017-12-20T07:41:32.844Z,10.19
2017-12-20T07:44:01.181Z,10.05
2017-12-20T07:46:29.572Z,10.13
2017-12-20T07:48:58.025Z,10.35
2017-12-20T07:51:26.405Z,10.31
2017-12-20T07:53:54.809Z,9.95
2017-12-20T07:56:23.212Z,9.80
2017-12-20T07:58:51.562Z,9.84
2017-12-20T08:01:19.908Z,9.94
2017-12-20T08:03:48.324Z,10.14
2017-12-20T08:06:16.693Z,10.41
2017-12-20T08:08:45.083Z,10.31
2017-12-20T08:11:13.434Z,10.40
2017-12-20T08:13:41.805Z,10.31
2017-12-20T08:16:10.579Z,10.38
2017-12-20T08:18:39.424Z,10.29
2017-12-20T08:21:07.785Z,10.00
2017-12-20T08:23:36.221Z,9.86
2017-12-20T08:26:04.993Z,9.65
2017-12-20T08:28:33.368Z,10.13
2017-12-20T08:31:01.730Z,10.51
2017-12-20T08:33:30.204Z,10.68
2017-12-20T08:35:58.569Z,10.68
2017-12-20T08:38:26.916Z,10.85
2017-12-20T08:40:55.712Z,10.78
2017-12-20T08:43:24.240Z,10.99
2017-12-20T08:45:53.232Z,10.83
2017-12-20T08:48:21.586Z,10.69
2017-12-20T08:50:50.087Z,11.02
2017-12-20T08:53:18.481Z,10.91
2017-12-20T08:55:46.841Z,11.12
2017-12-20T08:58:15.211Z,11.16
2017-12-20T09:00:43.568Z,11.28
2017-12-20T09:03:11.992Z,11.04
2017-12-20T09:05:40.355Z,11.33
2017-12-20T09:08:08.740Z,11.21
2017-12-20T09:10:37.332Z,11.07
2017-12-20T09:13:05.704Z,11.09
2017-12-20T09:15:34.071Z,11.42
2017-12-20T09:18:02.420Z,11.47
2017-12-20T09:20:30.840Z,11.09
2017-12-20T09:22:59.217Z,11.30
2017-12-20T09:25:27.588Z,11.24
2017-12-20T09:27:56.897Z,11.10
2017-12-20T09:30:25.252Z,11.17
2017-12-20T09:32:53.670Z,11.39
2017-12-20T09:35:22.028Z,11.47
2017-12-20T09:37:50.401Z,11.69
2017-12-20T09:40:18.788Z,11.51
2017-12-20T09:42:47.188Z,11.86
2017-12-20T09:45:15.652Z,11.72
2017-12-20T09:47:44.036Z,11.81
2017-12-20T09:50:12.451Z,11.41
2017-12-20T09:52:41.205Z,11.53
2017-12-20T09:55:09.583Z,11.82
2017-12-20T09:57:37.953Z,11.88
2017-12-20T10:00:06.549Z,11.94
2017-12-20T10:02:34.906Z,11.89
2017-12-20T10:05:03.263Z,11.83
2017-12-20T10:07:31.634Z,11.61
2017-12-20T10:09:59.990Z,11.79
2017-12-20T10:12:28.756Z,11.74
2017-12-20T10:14:57.117Z,11.38
2017-12-20T10:17:25.495Z,11.47
2017-12-20T10:19:53.873Z,11.64
2017-12-20T10:22:22.234Z,11.79
2017-12-20T10:24:50.731Z,11.84
2017-12-20T10:27:19.111Z,12.03
2017-12-20T10:29:47.498Z,11.87
2017-12-20T10:32:15.849Z,11.80
2017-12-20T10:34:44.207Z,11.73
2017-12-20T10:37:12.626Z,11.57
2017-12-20T10:39:41.007Z,11.51
2017-12-20T10:42:09.381Z,11.48
2017-12-20T10:44:37.732Z,11.20
2017-12-20T10:47:06.144Z,11.40
2017-12-20T10:49:34.533Z,11.64
2017-12-20T10:52:02.908Z,11.24
2017-12-20T10:54:31.285Z,11.48
2017-12-20T10:56:59.656Z,11.68
2017-12-20T10:59:28.040Z,11.31
2017-12-20T11:01:56.415Z,11.41
2017-12-20T11:04:24.829Z,11.38
2017-12-20T11:06:53.180Z,11.41
2017-12-20T11:09:21.588Z,11.55
2017-12-20T11:11:49.947Z,11.71
2017-12-20T11:14:18.421Z,11.87
2017-12-20T11:16:46.830Z,12.39
2017-12-20T11:19:15.586Z,12.39
2017-12-20T11:21:43.956Z,12.39
2017-12-20T11:24:12.513Z,12.25
2017-12-20T11:26:40.920Z,12.31
2017-12-20T11:29:09.326Z,12.29
2017-12-20T11:31:37.705Z,12.07
2017-12-20T11:34:06.161Z,12.12
2017-12-20T11:36:34.557Z,11.97
2017-12-20T11:39:02.920Z,11.80
2017-12-20T11:41:31.273Z,11.89
2017-12-20T11:43:59.749Z,11.78
2017-12-20T11:46:28.112Z,11.59
2017-12-20T11:48:56.919Z,11.58
2017-12-20T11:51:25.231Z,11.05
2017-12-20T11:53:53.624Z,11.51
2017-12-20T11:56:21.988Z,11.32
2017-12-20T11:58:50.358Z,11.62
2017-12-20T12:01:18.830Z,11.72
2017-12-20T12:03:47.189Z,11.75
2017-12-20T12:06:15.544Z,11.72
2017-12-20T12:08:44.372Z,11.79
2017-12-20T12:11:12.734Z,11.95
2017-12-20T12:13:41.107Z,11.59
2017-12-20T12:16:09.520Z,11.73
2017-12-20T12:18:37.872Z,11.85
2017-12-20T12:21:06.243Z,11.82
2017-12-20T12:23:34.648Z,11.81
2017-12-20T12:26:03.088Z,11.99
2017-12-20T12:28:31.926Z,11.86
2017-12-20T12:31:00.301Z,11.96
2017-12-20T12:33:28.665Z,11.96
2017-12-20T12:35:57.238Z,12.06
2017-12-20T12:38:25.636Z,12.17
2017-12-20T12:40:53.988Z,12.26
2017-12-20T12:43:22.380Z,12.17
2017-12-20T12:45:50.735Z,12.14
2017-12-20T12:48:19.488Z,11.98
2017-12-20T12:50:47.940Z,12.02
2017-12-20T12:53:16.288Z,12.21
2017-12-20T12:55:44.664Z,12.14
2017-12-20T12:58:13.081Z,12.19
2017-12-20T13:00:41.444Z,12.01
2017-12-20T13:03:09.787Z,12.37
2017-12-20T13:05:38.632Z,12.28
2017-12-20T13:08:07.217Z,12.25
2017-12-20T13:10:35.573Z,12.33
2017-12-20T13:13:03.928Z,12.40
2017-12-20T13:15:32.350Z,12.31
2017-12-20T13:18:00.716Z,12.11
2017-12-20T13:20:29.075Z,12.15
2017-12-20T13:22:57.432Z,12.03
2017-12-20T13:25:26.195Z,11.92
2017-12-20T13:27:55.172Z,11.83
2017-12-20T13:30:23.576Z,11.81
2017-12-20T13:32:52.035Z,11.81
2017-12-20T13:35:20.412Z,11.88
2017-12-20T13:37:48.778Z,11.99
2017-12-20T13:40:17.269Z,11.85
2017-12-20T13:42:45.648Z,11.71
2017-12-20T13:45:14.416Z,11.23
2017-12-20T13:47:42.870Z,11.28
2017-12-20T13:50:11.704Z,11.14
2017-12-20T13:52:40.089Z,11.37
2017-12-20T13:55:08.462Z,11.46
2017-12-20T13:57:37.068Z,11.39
2017-12-20T14:00:05.422Z,11.30
2017-12-20T14:02:33.798Z,11.34
2017-12-20T14:05:02.317Z,11.13
2017-12-20T14:07:30.671Z,11.25
2017-12-20T14:09:59.077Z,11.04
2017-12-20T14:12:27.820Z,11.09
2017-12-20T14:14:56.203Z,10.89
2017-12-20T14:17:24.699Z,11.11
2017-12-20T14:19:53.070Z,10.75
2017-12-20T14:22:21.449Z,11.01
2017-12-20T14:24:49.819Z,11.22
2017-12-20T14:27:18.174Z,11.13
2017-12-20T14:29:46.522Z,11.04
2017-12-20T14:32:15.289Z,11.19
2017-12-20T14:34:43.654Z,11.13
2017-12-20T14:37:12.140Z,11.12
2017-12-20T14:39:40.605Z,11.31
2017-12-20T14:42:09.097Z,11.22
2017-12-20T14:44:37.468Z,11.16
2017-12-20T14:47:05.817Z,11.34
2017-12-20T14:49:34.184Z,11.09
2017-12-20T14:52:02.595Z,10.99
2017-12-20T14:54:30.961Z,10.95
2017-12-20T14:57:00.197Z,11.08
2017-12-20T14:59:28.743Z,10.98
2017-12-20T15:01:57.096Z,10.99
2017-12-20T15:04:25.847Z,10.99
2017-12-20T15:06:54.310Z,10.97
2017-12-20T15:09:22.669Z,11.13
2017-12-20T15:11:51.032Z,11.17
2017-12-20T15:14:19.384Z,11.19
2017-12-20T15:16:48.157Z,10.91
2017-12-20T15:19:16.500Z,11.07
2017-12-20T15:21:44.857Z,10.90
2017-12-20T15:24:13.218Z,10.98
2017-12-20T15:26:42.167Z,11.05
2017-12-20T15:29:10.532Z,11.10
2017-12-20T15:31:38.922Z,11.16
2017-12-20T15:34:07.283Z,11.16
2017-12-20T15:36:35.665Z,11.21
2017-12-20T15:39:04.024Z,11.09
2017-12-20T15:41:32.379Z,11.16
2017-12-20T15:44:01.381Z,11.16
2017-12-20T15:46:29.736Z,11.22
2017-12-20T15:48:58.088Z,11.26
2017-12-20T15:51:26.492Z,11.38
2017-12-20T15:53:54.860Z,11.35
2017-12-20T15:56:23.224Z,11.35
2017-12-20T15:58:51.581Z,11.30
2017-12-20T16:01:20.021Z,11.35
2017-12-20T16:03:48.774Z,11.31
2017-12-20T16:06:17.120Z,11.31
2017-12-20T16:08:45.489Z,11.47
2017-12-20T16:11:13.854Z,11.42
2017-12-20T16:13:42.285Z,11.47
2017-12-20T16:16:10.696Z,11.56
2017-12-20T16:18:39.453Z,11.61
2017-12-20T16:21:07.924Z,11.59
2017-12-20T16:23:36.269Z,11.41
2017-12-20T16:26:04.653Z,11.56
2017-12-20T16:28:33.136Z,11.69
2017-12-20T16:31:01.489Z,11.49
2017-12-20T16:33:30.255Z,11.66
2017-12-20T16:35:58.616Z,11.49
2017-12-20T16:38:26.982Z,11.33
2017-12-20T16:40:55.361Z,11.26
2017-12-20T16:43:23.728Z,11.23
2017-12-20T16:45:52.089Z,11.24
2017-12-20T16:48:20.453Z,11.30
2017-12-20T16:50:49.392Z,11.51
2017-12-20T16:53:35.604Z,11.24
2017-12-20T16:56:04.170Z,11.16
2017-12-20T16:58:32.525Z,11.03
2017-12-20T17:01:00.920Z,10.98
2017-12-20T17:03:29.318Z,11.05
2017-12-20T17:05:57.680Z,11.14
2017-12-20T17:08:26.074Z,11.07
2017-12-20T17:10:54.444Z,10.91
2017-12-20T17:13:22.824Z,11.01
2017-12-20T17:15:51.177Z,11.06
2017-12-20T17:18:19.585Z,11.07
2017-12-20T17:20:47.961Z,11.32
2017-12-20T17:23:16.313Z,11.29
2017-12-20T17:25:44.694Z,11.26
2017-12-20T17:28:13.061Z,11.35
2017-12-20T17:30:41.429Z,11.48
2017-12-20T17:33:10.172Z,11.63
2017-12-20T17:35:38.637Z,11.63
2017-12-20T17:38:07.024Z,11.62
2017-12-20T17:40:35.409Z,11.61
2017-12-20T17:43:03.782Z,11.65
2017-12-20T17:45:32.159Z,11.65
2017-12-20T17:48:00.528Z,11.66
2017-12-20T17:50:28.912Z,11.54
2017-12-20T17:52:57.268Z,11.62
2017-12-20T17:55:25.629Z,11.49
2017-12-20T17:57:54.050Z,11.48
2017-12-20T18:00:22.429Z,11.66
2017-12-20T18:02:50.784Z,11.71
2017-12-20T18:05:19.168Z,11.68
2017-12-20T18:07:47.527Z,11.84
2017-12-20T18:10:15.884Z,11.62
2017-12-20T18:12:44.644Z,11.59
2017-12-20T18:15:13.005Z,11.64
2017-12-20T18:17:41.388Z,11.48
2017-12-20T18:20:09.745Z,11.44
2017-12-20T18:22:38.104Z,11.19
2017-12-20T18:25:06.478Z,11.25
2017-12-20T18:27:34.909Z,11.29
2017-12-20T18:30:03.384Z,11.26
2017-12-20T18:32:31.749Z,11.45
2017-12-20T18:35:00.151Z,11.54
2017-12-20T18:37:28.516Z,11.53
2017-12-20T18:39:56.875Z,11.58
2017-12-20T18:42:25.279Z,11.83
2017-12-20T18:44:53.652Z,11.72
2017-12-20T18:47:22.028Z,11.80
2017-12-20T18:49:50.424Z,11.70
2017-12-20T18:52:18.888Z,11.85
2017-12-20T18:54:47.285Z,11.83
2017-12-20T18:57:15.652Z,11.90
2017-12-20T18:59:44.035Z,11.92
2017-12-20T19:02:12.416Z,11.81
2017-12-20T19:04:40.805Z,11.91
2017-12-20T19:07:09.163Z,11.95
2017-12-20T19:09:37.518Z,11.70
2017-12-20T19:12:05.869Z,11.84
2017-12-20T19:14:34.625Z,11.91
2017-12-20T19:17:03.018Z,11.83
2017-12-20T19:19:31.384Z,11.61
2017-12-20T19:21:59.736Z,11.82
2017-12-20T19:24:28.130Z,11.92
2017-12-20T19:26:56.520Z,11.91
2017-12-20T19:29:24.889Z,11.78
2017-12-20T19:31:53.252Z,11.43
2017-12-20T19:34:21.606Z,11.48
2017-12-20T19:36:49.955Z,11.19
2017-12-20T19:39:18.301Z,11.47
2017-12-20T19:41:46.661Z,11.49
2017-12-20T19:44:15.035Z,11.48
2017-12-20T19:46:43.404Z,11.65
2017-12-20T19:49:11.770Z,11.71
2017-12-20T19:51:40.149Z,11.62
2017-12-20T19:54:08.516Z,11.53
2017-12-20T19:56:37.265Z,11.50
2017-12-20T19:59:05.630Z,11.61
2017-12-20T20:01:33.988Z,11.85
2017-12-20T20:04:02.357Z,11.81
2017-12-20T20:06:30.712Z,11.87
2017-12-20T20:08:59.499Z,11.94
2017-12-20T20:11:27.871Z,11.69
2017-12-20T20:13:56.619Z,11.75
2017-12-20T20:16:25.076Z,11.78
2017-12-20T20:18:53.432Z,11.86
2017-12-20T20:21:22.373Z,11.89
2017-12-20T20:23:50.721Z,11.82
2017-12-20T20:26:19.082Z,11.75
2017-12-20T20:28:47.917Z,11.68
2017-12-20T20:31:16.271Z,11.74
2017-12-20T20:33:44.653Z,11.60
2017-12-20T20:36:13.017Z,11.54
2017-12-20T20:38:41.449Z,11.41
2017-12-20T20:41:09.821Z,11.42
2017-12-20T20:43:38.285Z,11.52
2017-12-20T20:46:06.669Z,11.53
2017-12-20T20:48:35.044Z,11.53
2017-12-20T20:51:03.410Z,11.51
2017-12-20T20:53:31.762Z,11.30
2017-12-20T20:56:00.677Z,11.47
2017-12-20T20:58:29.033Z,11.49
2017-12-20T21:00:57.475Z,11.10
2017-12-20T21:03:25.854Z,11.40
2017-12-20T21:05:54.208Z,11.44
2017-12-20T21:08:22.567Z,11.48
2017-12-20T21:10:50.969Z,11.54
2017-12-20T21:13:19.353Z,11.40
2017-12-20T21:15:47.712Z,11.39
2017-12-20T21:18:16.073Z,11.28
2017-12-20T21:20:44.444Z,11.45
2017-12-20T21:23:12.805Z,11.43
2017-12-20T21:25:41.594Z,11.50
2017-12-20T21:28:10.336Z,11.58
2017-12-20T21:30:38.694Z,11.72
2017-12-20T21:33:07.060Z,11.69
2017-12-20T21:35:35.493Z,11.61
2017-12-20T21:38:03.876Z,11.55
2017-12-20T21:40:32.344Z,11.59
2017-12-20T21:43:00.713Z,11.63
2017-12-20T21:45:29.069Z,11.75
2017-12-20T21:47:57.781Z,11.57
2017-12-20T21:50:26.143Z,11.44
2017-12-20T21:52:54.493Z,11.40
2017-12-20T21:55:23.021Z,11.46
2017-12-20T21:57:51.373Z,11.56
2017-12-20T22:00:19.748Z,11.61
2017-12-20T22:02:48.331Z,11.46
2017-12-20T22:05:16.772Z,11.51
2017-12-20T22:07:45.581Z,11.54
2017-12-20T22:10:14.004Z,11.45
2017-12-20T22:12:42.472Z,11.54
2017-12-20T22:15:10.857Z,11.51
2017-12-20T22:17:39.230Z,11.47
2017-12-20T22:20:07.589Z,11.53
2017-12-20T22:22:36.001Z,11.54
2017-12-20T22:25:04.422Z,11.49
2017-12-20T22:27:34.284Z,11.46
2017-12-20T22:30:02.664Z,11.48
2017-12-20T22:32:31.332Z,11.46
2017-12-20T22:34:59.712Z,11.41
2017-12-20T22:37:28.089Z,11.43
2017-12-20T22:39:56.506Z,11.56
2017-12-20T22:42:25.052Z,11.64
2017-12-20T22:44:53.431Z,11.67
2017-12-20T22:47:21.932Z,11.76
2017-12-20T22:49:50.313Z,11.61
2017-12-20T22:52:18.692Z,11.67
2017-12-20T22:54:47.050Z,11.38
2017-12-20T22:57:15.408Z,11.48
2017-12-20T22:59:44.236Z,11.49
2017-12-20T23:02:12.726Z,11.61
2017-12-20T23:04:41.205Z,11.46
2017-12-20T23:07:09.560Z,11.74
2017-12-20T23:09:37.941Z,11.72
2017-12-20T23:12:06.347Z,11.71
2017-12-20T23:14:34.701Z,11.75
2017-12-20T23:17:03.108Z,11.84
2017-12-20T23:19:31.488Z,11.83
2017-12-20T23:21:59.875Z,11.80
2017-12-20T23:24:28.225Z,11.73
2017-12-20T23:26:56.618Z,11.77
2017-12-20T23:29:24.984Z,11.85
2017-12-20T23:31:53.359Z,11.81
2017-12-20T23:34:21.717Z,11.71
2017-12-20T23:36:50.072Z,11.84
2017-12-20T23:39:18.827Z,11.81
2017-12-20T23:41:47.180Z,11.57
2017-12-20T23:44:15.672Z,11.81
2017-12-20T23:46:44.056Z,11.97
2017-12-20T23:49:12.448Z,11.96
2017-12-20T23:51:40.804Z,11.86
2017-12-20T23:54:09.192Z,11.96
2017-12-20T23:56:37.581Z,11.99
2017-12-20T23:59:05.949Z,11.79
